Time;durP1;ratioP1;P1;durP2;ratioP2;P2;SDS_P1;SDS_P2;PMS_P1;PMS_P2;Temp;Humidity;BMP_temperature;BMP_pressure;BME280_temperature;BME280_humidity;BME280_pressure;Samples;Min_cycle;Max_cycle;Signal;HPM_P1;HPM_P2
2022/03/02 00:01:09;;;;;;;7.35;3.65;;;;;;;;;;5052826;28;20028;-68
2022/03/02 00:03:36;;;;;;;11.40;4.18;;;;;;;;;;5052927;28;20037;-67
2022/03/02 00:06:02;;;;;;;10.48;4.13;;;;;;;;;;5068276;28;20021;-66
2022/03/02 00:08:29;;;;;;;10.68;3.70;;;;;;;;;;5052986;28;20025;-67
2022/03/02 00:10:55;;;;;;;7.68;3.90;;;;;;;;;;5034517;28;20045;-66
2022/03/02 00:13:21;;;;;;;6.38;3.42;;;;;;;;;;5032893;28;20104;-65
2022/03/02 00:15:48;;;;;;;10.40;3.88;;;;;;;;;;5048134;28;20047;-67
2022/03/02 00:18:14;;;;;;;7.03;3.33;;;;;;;;;;5032795;28;20017;-65
2022/03/02 00:20:40;;;;;;;8.32;3.88;;;;;;;;;;5038244;28;20021;-65
2022/03/02 00:23:07;;;;;;;10.38;3.63;;;;;;;;;;5052838;28;20037;-66
2022/03/02 00:25:33;;;;;;;7.03;3.40;;;;;;;;;;5068273;28;20060;-66
2022/03/02 00:27:59;;;;;;;9.70;3.65;;;;;;;;;;5052735;28;20057;-66
2022/03/02 00:30:30;;;;;;;8.95;3.80;;;;;;;;;;5052569;28;20032;-69
2022/03/02 00:32:56;;;;;;;12.82;4.30;;;;;;;;;;5052461;28;20053;-68
2022/03/02 00:35:22;;;;;;;10.23;3.92;;;;;;;;;;5052582;28;20025;-66
2022/03/02 00:37:48;;;;;;;10.45;4.32;;;;;;;;;;5052772;28;20357;-65
2022/03/02 00:40:15;;;;;;;6.30;3.35;;;;;;;;;;5052796;28;20032;-65
2022/03/02 00:42:41;;;;;;;9.00;3.50;;;;;;;;;;5067945;28;20508;-67
2022/03/02 00:45:07;;;;;;;7.95;3.75;;;;;;;;;;5052515;28;20025;-67
2022/03/02 00:47:33;;;;;;;7.60;3.75;;;;;;;;;;5052697;28;20056;-66
2022/03/02 00:49:59;;;;;;;5.35;3.10;;;;;;;;;;5052614;28;20024;-66
2022/03/02 00:52:25;;;;;;;6.45;3.58;;;;;;;;;;5068217;28;20029;-66
2022/03/02 00:54:51;;;;;;;8.52;3.33;;;;;;;;;;5055277;28;20025;-68
2022/03/02 00:57:17;;;;;;;6.85;3.95;;;;;;;;;;5047483;28;20022;-66
2022/03/02 00:59:43;;;;;;;7.40;3.05;;;;;;;;;;5036673;28;20044;-66
2022/03/02 01:02:09;;;;;;;9.88;3.83;;;;;;;;;;5036501;28;20021;-70
2022/03/02 01:04:36;;;;;;;7.28;3.92;;;;;;;;;;5036551;28;20053;-66
2022/03/02 01:07:02;;;;;;;6.55;3.58;;;;;;;;;;5035195;28;20017;-68
2022/03/02 01:09:28;;;;;;;9.25;4.18;;;;;;;;;;5035276;28;20064;-67
2022/03/02 01:11:54;;;;;;;7.10;3.65;;;;;;;;;;5036446;28;20021;-66
2022/03/02 01:14:20;;;;;;;7.55;3.58;;;;;;;;;;5036398;28;20017;-67
2022/03/02 01:16:46;;;;;;;8.30;3.80;;;;;;;;;;5036219;28;20022;-66
2022/03/02 01:19:12;;;;;;;9.45;4.15;;;;;;;;;;5035073;28;20022;-67
2022/03/02 01:21:38;;;;;;;8.30;3.72;;;;;;;;;;5036192;28;20026;-66
2022/03/02 01:24:05;;;;;;;8.93;4.05;;;;;;;;;;5035981;28;20477;-68
2022/03/02 01:26:31;;;;;;;7.03;3.53;;;;;;;;;;5036060;28;20034;-65
2022/03/02 01:28:57;;;;;;;8.40;4.05;;;;;;;;;;5036208;28;20018;-65
2022/03/02 01:31:24;;;;;;;8.18;4.28;;;;;;;;;;5036100;28;20424;-70
2022/03/02 01:33:51;;;;;;;7.85;4.07;;;;;;;;;;5035736;28;20052;-67
2022/03/02 01:36:18;;;;;;;7.22;3.78;;;;;;;;;;5035944;28;20052;-66
2022/03/02 01:38:44;;;;;;;7.35;3.65;;;;;;;;;;5034872;28;20139;-66
2022/03/02 01:41:12;;;;;;;6.90;3.60;;;;;;;;;;5034532;28;20116;-66
2022/03/02 01:43:39;;;;;;;7.68;3.70;;;;;;;;;;5034412;28;20034;-66
2022/03/02 01:46:05;;;;;;;7.70;3.70;;;;;;;;;;5035792;28;20059;-66
2022/03/02 01:48:31;;;;;;;7.50;3.70;;;;;;;;;;5035798;28;20022;-67
2022/03/02 01:50:57;;;;;;;5.72;3.40;;;;;;;;;;5035599;28;20092;-65
2022/03/02 01:53:23;;;;;;;6.68;3.50;;;;;;;;;;5035725;28;20025;-67
2022/03/02 01:55:49;;;;;;;7.75;3.35;;;;;;;;;;5034235;28;20068;-66
2022/03/02 01:58:15;;;;;;;7.00;3.42;;;;;;;;;;5052137;28;20472;-65
2022/03/02 02:00:41;;;;;;;8.25;3.83;;;;;;;;;;5055351;28;20033;-65
2022/03/02 02:03:07;;;;;;;7.30;3.85;;;;;;;;;;5055159;28;20123;-67
2022/03/02 02:05:33;;;;;;;6.25;3.55;;;;;;;;;;5070300;28;20156;-66
2022/03/02 02:07:59;;;;;;;6.88;3.60;;;;;;;;;;5049975;28;20022;-65
2022/03/02 02:10:25;;;;;;;6.78;3.53;;;;;;;;;;5035183;28;20013;-65
2022/03/02 02:12:51;;;;;;;6.65;3.22;;;;;;;;;;5035023;28;20025;-65
2022/03/02 02:15:17;;;;;;;6.97;3.85;;;;;;;;;;5050427;28;20057;-66
2022/03/02 02:17:44;;;;;;;7.68;3.67;;;;;;;;;;5035162;28;20477;-67
2022/03/02 02:20:10;;;;;;;6.82;3.83;;;;;;;;;;5034550;28;20026;-65
2022/03/02 02:22:40;;;;;;;6.07;3.22;;;;;;;;;;5034975;28;20118;-65
2022/03/02 02:25:07;;;;;;;6.93;3.33;;;;;;;;;;5034883;28;20032;-65
2022/03/02 02:27:33;;;;;;;6.65;3.45;;;;;;;;;;5034988;28;20506;-67
2022/03/02 02:30:00;;;;;;;6.47;3.60;;;;;;;;;;5050214;28;20033;-66
2022/03/02 02:32:26;;;;;;;8.48;4.35;;;;;;;;;;5034698;28;20080;-67
2022/03/02 02:34:52;;;;;;;6.43;3.47;;;;;;;;;;5034611;28;20021;-67
2022/03/02 02:37:18;;;;;;;6.95;3.65;;;;;;;;;;5034626;28;20030;-67
2022/03/02 02:39:53;;;;;;;6.78;3.25;;;;;;;;;;5034732;28;20026;-66
2022/03/02 02:42:19;;;;;;;8.07;3.95;;;;;;;;;;5034814;28;20029;-66
2022/03/02 02:44:46;;;;;;;8.75;3.92;;;;;;;;;;5034686;28;20053;-66
2022/03/02 02:47:12;;;;;;;7.22;3.55;;;;;;;;;;5034594;28;20029;-65
2022/03/02 02:49:38;;;;;;;6.72;3.65;;;;;;;;;;5034663;28;20022;-65
2022/03/02 02:52:04;;;;;;;8.38;4.03;;;;;;;;;;5034538;28;20568;-66
2022/03/02 02:54:30;;;;;;;7.75;3.88;;;;;;;;;;5034536;28;20014;-66
2022/03/02 02:56:56;;;;;;;6.13;3.10;;;;;;;;;;5040386;28;20100;-68
2022/03/02 02:59:22;;;;;;;6.97;3.58;;;;;;;;;;5054331;28;20031;-67
2022/03/02 03:01:48;;;;;;;7.70;3.67;;;;;;;;;;5054227;28;20034;-67
2022/03/02 03:04:14;;;;;;;7.72;3.80;;;;;;;;;;5054316;28;20043;-67
2022/03/02 03:06:40;;;;;;;6.97;3.25;;;;;;;;;;5054095;28;20384;-66
2022/03/02 03:09:07;;;;;;;7.97;3.70;;;;;;;;;;5054098;28;20075;-66
2022/03/02 03:11:33;;;;;;;7.50;3.78;;;;;;;;;;5054212;28;20067;-65
2022/03/02 03:13:59;;;;;;;6.60;3.42;;;;;;;;;;5053925;28;20100;-67
2022/03/02 03:16:25;;;;;;;7.53;3.20;;;;;;;;;;5053290;28;20033;-67
2022/03/02 03:18:52;;;;;;;8.32;3.33;;;;;;;;;;5054014;28;20024;-67
2022/03/02 03:21:18;;;;;;;7.57;3.80;;;;;;;;;;5053979;28;20017;-67
2022/03/02 03:23:44;;;;;;;7.28;3.40;;;;;;;;;;5053718;28;20033;-67
2022/03/02 03:26:10;;;;;;;8.40;3.97;;;;;;;;;;5053790;28;20041;-67
2022/03/02 03:28:36;;;;;;;6.18;3.28;;;;;;;;;;5053848;28;20033;-68
2022/03/02 03:31:02;;;;;;;6.28;3.50;;;;;;;;;;5053645;28;20021;-67
2022/03/02 03:33:28;;;;;;;6.53;2.90;;;;;;;;;;5053419;28;20518;-67
2022/03/02 03:35:54;;;;;;;7.07;3.38;;;;;;;;;;5053748;28;20430;-67
2022/03/02 03:38:20;;;;;;;6.75;3.50;;;;;;;;;;5053632;28;20028;-67
2022/03/02 03:40:46;;;;;;;7.15;3.50;;;;;;;;;;5053710;28;20025;-67
2022/03/02 03:43:12;;;;;;;7.38;3.67;;;;;;;;;;5053507;28;20075;-66
2022/03/02 03:45:39;;;;;;;8.20;3.47;;;;;;;;;;5053545;28;20024;-66
2022/03/02 03:48:05;;;;;;;6.85;3.63;;;;;;;;;;5053391;28;20029;-66
2022/03/02 03:50:31;;;;;;;7.25;3.88;;;;;;;;;;5053467;28;20074;-67
2022/03/02 03:52:57;;;;;;;6.05;3.42;;;;;;;;;;5053249;28;20032;-68
2022/03/02 03:55:23;;;;;;;6.93;3.38;;;;;;;;;;5053321;28;20025;-66
2022/03/02 03:57:49;;;;;;;8.02;3.35;;;;;;;;;;5040053;28;20018;-67
2022/03/02 04:00:17;;;;;;;8.75;4.10;;;;;;;;;;5048731;28;20026;-67
2022/03/02 04:02:43;;;;;;;11.18;3.88;;;;;;;;;;5033264;28;20029;-67
2022/03/02 04:05:09;;;;;;;5.93;3.20;;;;;;;;;;5048588;28;20025;-66
2022/03/02 04:07:36;;;;;;;7.05;3.72;;;;;;;;;;5033205;28;20076;-66
2022/03/02 04:10:03;;;;;;;7.88;3.60;;;;;;;;;;5033194;28;20025;-65
2022/03/02 04:12:29;;;;;;;6.75;3.53;;;;;;;;;;5033129;28;20032;-69
2022/03/02 04:14:56;;;;;;;7.22;3.53;;;;;;;;;;5032863;28;20376;-66
2022/03/02 04:17:22;;;;;;;5.68;3.00;;;;;;;;;;5032973;28;20159;-66
2022/03/02 04:19:48;;;;;;;6.15;3.20;;;;;;;;;;5033075;28;20013;-65
2022/03/02 04:22:14;;;;;;;6.95;3.25;;;;;;;;;;5062098;28;20043;-66
2022/03/02 04:24:40;;;;;;;6.85;3.47;;;;;;;;;;5052966;28;20021;-66
2022/03/02 04:27:07;;;;;;;6.57;3.67;;;;;;;;;;5052776;28;20063;-67
2022/03/02 04:29:33;;;;;;;8.98;3.42;;;;;;;;;;5052895;28;20024;-66
2022/03/02 04:31:59;;;;;;;10.02;3.60;;;;;;;;;;5052599;28;20041;-68
2022/03/02 04:34:26;;;;;;;7.63;3.45;;;;;;;;;;5052780;28;20716;-66
2022/03/02 04:36:52;;;;;;;6.55;3.30;;;;;;;;;;5068132;28;20526;-67
2022/03/02 04:39:18;;;;;;;7.40;4.07;;;;;;;;;;5052844;28;20060;-66
2022/03/02 04:41:44;;;;;;;8.68;3.83;;;;;;;;;;5052900;28;20097;-66
2022/03/02 04:44:10;;;;;;;8.02;3.65;;;;;;;;;;5052742;28;20056;-70
2022/03/02 04:46:36;;;;;;;8.77;3.75;;;;;;;;;;5052621;28;20025;-65
2022/03/02 04:49:10;;;;;;;9.45;3.55;;;;;;;;;;5052576;28;20493;-66
2022/03/02 04:51:40;;;;;;;6.97;3.58;;;;;;;;;;5068161;28;20112;-67
2022/03/02 04:54:07;;;;;;;6.82;3.60;;;;;;;;;;5052471;28;20028;-66
2022/03/02 04:56:34;;;;;;;7.38;3.70;;;;;;;;;;5049848;28;20029;-68
2022/03/02 04:59:03;;;;;;;7.07;3.28;;;;;;;;;;5032351;28;20024;-66
2022/03/02 05:01:30;;;;;;;8.55;3.50;;;;;;;;;;5031314;28;20376;-67
2022/03/02 05:03:56;;;;;;;5.95;3.15;;;;;;;;;;5032597;28;20029;-69
2022/03/02 05:06:22;;;;;;;8.13;3.90;;;;;;;;;;5032755;28;20021;-67
2022/03/02 05:08:48;;;;;;;6.45;3.47;;;;;;;;;;5032679;28;20119;-67
2022/03/02 05:11:14;;;;;;;7.50;3.33;;;;;;;;;;5032748;28;20028;-65
2022/03/02 05:13:40;;;;;;;6.78;3.38;;;;;;;;;;5031821;28;20100;-65
2022/03/02 05:16:06;;;;;;;7.78;3.65;;;;;;;;;;5032366;28;20025;-67
2022/03/02 05:18:33;;;;;;;7.95;4.10;;;;;;;;;;5031367;28;20032;-69
2022/03/02 05:20:59;;;;;;;8.30;3.97;;;;;;;;;;5032384;28;20025;-65
2022/03/02 05:23:25;;;;;;;9.15;4.22;;;;;;;;;;5032369;28;20495;-65
2022/03/02 05:25:51;;;;;;;7.18;3.67;;;;;;;;;;5032433;28;20021;-70
2022/03/02 05:28:17;;;;;;;8.40;4.72;;;;;;;;;;5032334;28;20442;-64
2022/03/02 05:30:43;;;;;;;8.73;4.13;;;;;;;;;;5032451;28;20029;-68
2022/03/02 05:33:10;;;;;;;8.77;4.03;;;;;;;;;;5032349;28;20107;-67
2022/03/02 05:35:36;;;;;;;8.82;4.03;;;;;;;;;;5032316;28;20017;-66
2022/03/02 05:38:02;;;;;;;7.50;3.80;;;;;;;;;;5031106;28;20558;-67
2022/03/02 05:40:28;;;;;;;9.10;4.40;;;;;;;;;;5034042;28;20412;-68
2022/03/02 05:42:56;;;;;;;9.45;4.10;;;;;;;;;;5035685;28;20033;-67
2022/03/02 05:45:22;;;;;;;8.90;4.55;;;;;;;;;;5034597;28;20531;-70
2022/03/02 05:47:48;;;;;;;9.75;3.90;;;;;;;;;;5035650;28;20100;-69
2022/03/02 05:50:14;;;;;;;6.88;3.70;;;;;;;;;;5035713;28;20392;-66
2022/03/02 05:52:40;;;;;;;10.82;3.97;;;;;;;;;;5035636;28;20025;-69
2022/03/02 05:55:06;;;;;;;8.05;3.72;;;;;;;;;;5035446;28;20028;-66
2022/03/02 05:57:33;;;;;;;7.88;4.00;;;;;;;;;;5045199;28;20087;-66
2022/03/02 05:59:59;;;;;;;7.22;3.78;;;;;;;;;;5055450;28;20083;-66
2022/03/02 06:02:25;;;;;;;8.10;3.75;;;;;;;;;;5055166;28;20031;-66
2022/03/02 06:04:51;;;;;;;7.05;3.38;;;;;;;;;;5055139;28;20498;-65
2022/03/02 06:07:17;;;;;;;6.60;3.60;;;;;;;;;;5055182;28;20463;-66
2022/03/02 06:09:43;;;;;;;7.63;3.45;;;;;;;;;;5070350;28;20036;-66
2022/03/02 06:12:09;;;;;;;8.23;3.85;;;;;;;;;;5054982;28;20034;-65
2022/03/02 06:14:35;;;;;;;8.18;4.35;;;;;;;;;;5070419;28;20009;-65
2022/03/02 06:17:02;;;;;;;9.27;3.90;;;;;;;;;;5055001;28;20029;-65
2022/03/02 06:19:28;;;;;;;7.65;3.72;;;;;;;;;;5055235;28;20097;-67
2022/03/02 06:21:54;;;;;;;7.43;3.83;;;;;;;;;;5052787;28;20403;-65
2022/03/02 06:24:20;;;;;;;8.55;4.05;;;;;;;;;;5055004;28;20033;-68
2022/03/02 06:26:47;;;;;;;9.15;4.15;;;;;;;;;;5054976;28;20025;-66
2022/03/02 06:29:13;;;;;;;9.45;3.70;;;;;;;;;;5070587;28;20369;-65
2022/03/02 06:31:40;;;;;;;6.53;3.40;;;;;;;;;;5054590;28;20025;-66
2022/03/02 06:34:06;;;;;;;8.57;4.40;;;;;;;;;;5054743;28;20021;-68
2022/03/02 06:36:32;;;;;;;7.85;4.20;;;;;;;;;;5054872;28;20029;-65
2022/03/02 06:38:58;;;;;;;10.23;4.03;;;;;;;;;;5054360;28;20053;-65
2022/03/02 06:42:00;;;;;;;8.30;4.00;;;;;;;;;;5054740;28;20025;-70
2022/03/02 06:44:27;;;;;;;8.25;4.20;;;;;;;;;;5032588;28;20059;-68
2022/03/02 06:47:04;;;;;;;9.57;4.65;;;;;;;;;;5046613;28;20095;-68
2022/03/02 06:49:33;;;;;;;8.35;3.97;;;;;;;;;;5034503;28;20026;-68
2022/03/02 06:52:00;;;;;;;9.73;4.15;;;;;;;;;;5034534;28;20021;-67
2022/03/02 06:54:29;;;;;;;8.75;3.95;;;;;;;;;;5034327;28;20017;-68
2022/03/02 06:56:56;;;;;;;7.38;3.60;;;;;;;;;;5039939;28;20016;-68
2022/03/02 06:59:29;;;;;;;8.00;4.28;;;;;;;;;;5054259;28;20368;-67
2022/03/02 07:01:57;;;;;;;8.93;4.55;;;;;;;;;;5054206;28;20476;-66
2022/03/02 07:04:24;;;;;;;9.32;4.80;;;;;;;;;;5054055;28;20086;-68
2022/03/02 07:06:51;;;;;;;7.93;3.95;;;;;;;;;;5054237;28;20384;-66
2022/03/02 07:09:19;;;;;;;9.50;4.63;;;;;;;;;;5053960;28;20440;-66
2022/03/02 07:11:48;;;;;;;7.85;4.00;;;;;;;;;;5054060;28;20029;-68
2022/03/02 07:14:15;;;;;;;6.55;3.60;;;;;;;;;;5053968;28;20029;-66
2022/03/02 07:16:43;;;;;;;9.57;4.43;;;;;;;;;;5053641;28;20028;-69
2022/03/02 07:19:09;;;;;;;7.47;3.40;;;;;;;;;;5053807;28;20021;-67
2022/03/02 07:21:37;;;;;;;10.43;4.25;;;;;;;;;;5053864;28;20025;-67
2022/03/02 07:24:07;;;;;;;8.55;4.00;;;;;;;;;;5053577;28;20048;-67
2022/03/02 07:26:34;;;;;;;7.40;4.00;;;;;;;;;;5053815;28;20025;-67
2022/03/02 07:29:01;;;;;;;8.07;3.63;;;;;;;;;;5053486;28;20025;-67
2022/03/02 07:31:27;;;;;;;6.55;3.67;;;;;;;;;;5053630;28;20025;-69
2022/03/02 07:33:53;;;;;;;9.40;3.50;;;;;;;;;;5053228;28;20484;-66
2022/03/02 07:36:22;;;;;;;8.07;3.90;;;;;;;;;;5053538;28;20063;-69
2022/03/02 07:38:48;;;;;;;7.78;3.72;;;;;;;;;;5053673;28;20021;-68
2022/03/02 07:41:15;;;;;;;10.13;3.92;;;;;;;;;;5053725;28;20028;-66
2022/03/02 07:43:41;;;;;;;7.75;4.15;;;;;;;;;;5053319;28;20033;-67
2022/03/02 07:46:12;;;;;;;7.80;3.75;;;;;;;;;;5053380;28;20379;-68
2022/03/02 07:48:38;;;;;;;7.57;3.88;;;;;;;;;;5053151;28;20028;-69
2022/03/02 07:51:06;;;;;;;7.30;4.07;;;;;;;;;;5053081;28;20021;-68
2022/03/02 07:53:37;;;;;;;6.63;3.55;;;;;;;;;;5053240;28;20430;-68
2022/03/02 07:56:04;;;;;;;7.18;3.97;;;;;;;;;;5053055;28;20078;-68
2022/03/02 07:58:30;;;;;;;8.00;3.60;;;;;;;;;;5053082;28;20021;-68
2022/03/02 08:01:00;;;;;;;7.78;3.65;;;;;;;;;;5053202;28;20025;-69
2022/03/02 08:03:27;;;;;;;8.88;4.65;;;;;;;;;;5052818;28;20032;-68
2022/03/02 08:05:59;;;;;;;8.13;3.97;;;;;;;;;;5068597;28;20380;-67
2022/03/02 08:08:25;;;;;;;8.90;4.03;;;;;;;;;;5053166;28;20032;-67
2022/03/02 08:10:54;;;;;;;8.23;3.78;;;;;;;;;;5052925;28;20029;-68
2022/03/02 08:13:20;;;;;;;9.98;3.90;;;;;;;;;;5052920;28;20379;-68
2022/03/02 08:15:46;;;;;;;9.48;3.72;;;;;;;;;;5050678;28;20104;-68
2022/03/02 08:18:12;;;;;;;7.22;4.05;;;;;;;;;;5035907;28;20032;-67
2022/03/02 08:20:45;;;;;;;19.38;3.67;;;;;;;;;;5035828;28;20096;-67
2022/03/02 08:23:11;;;;;;;9.02;4.50;;;;;;;;;;5052468;28;20413;-67
2022/03/02 08:25:37;;;;;;;8.02;3.65;;;;;;;;;;5068145;28;20079;-67
2022/03/02 08:28:06;;;;;;;9.27;3.90;;;;;;;;;;5052387;28;20423;-68
2022/03/02 08:30:33;;;;;;;8.70;3.60;;;;;;;;;;5052310;28;20032;-67
2022/03/02 08:33:01;;;;;;;7.63;3.90;;;;;;;;;;5052042;28;20041;-68
2022/03/02 08:35:34;;;;;;;6.75;3.00;;;;;;;;;;5052609;28;20606;-67
2022/03/02 08:38:01;;;;;;;7.93;3.50;;;;;;;;;;5052482;28;20078;-67
2022/03/02 08:40:27;;;;;;;7.18;3.28;;;;;;;;;;5052426;28;20029;-68
2022/03/02 08:42:53;;;;;;;5.93;3.20;;;;;;;;;;5052457;28;20037;-68
2022/03/02 08:45:20;;;;;;;6.70;3.53;;;;;;;;;;5052600;28;20074;-67
2022/03/02 08:47:46;;;;;;;6.82;3.45;;;;;;;;;;5067955;28;20029;-67
2022/03/02 08:50:12;;;;;;;6.80;3.38;;;;;;;;;;5052207;28;20013;-68
2022/03/02 08:52:38;;;;;;;6.95;2.78;;;;;;;;;;5052125;28;20032;-69
2022/03/02 08:55:08;;;;;;;5.85;2.92;;;;;;;;;;5052132;28;20021;-69
2022/03/02 08:57:35;;;;;;;7.35;3.67;;;;;;;;;;5067691;28;20033;-69
2022/03/02 09:00:03;;;;;;;11.02;3.15;;;;;;;;;;5052174;28;20039;-69
2022/03/02 09:02:30;;;;;;;6.93;3.67;;;;;;;;;;5051913;28;20021;-67
2022/03/02 09:04:59;;;;;;;6.88;3.75;;;;;;;;;;5050628;28;20048;-67
2022/03/02 09:07:25;;;;;;;7.28;3.90;;;;;;;;;;5052250;28;20075;-67
2022/03/02 09:09:51;;;;;;;6.28;3.38;;;;;;;;;;5044800;28;20116;-67
2022/03/02 09:12:18;;;;;;;7.57;3.03;;;;;;;;;;5032541;28;20428;-68
2022/03/02 09:14:44;;;;;;;7.05;3.30;;;;;;;;;;5048492;28;20116;-68
2022/03/02 09:17:11;;;;;;;7.03;3.40;;;;;;;;;;5036034;28;20104;-67
2022/03/02 09:19:37;;;;;;;7.47;3.10;;;;;;;;;;5036135;28;20026;-67
2022/03/02 09:22:04;;;;;;;6.82;3.42;;;;;;;;;;5036268;28;20412;-68
2022/03/02 09:24:31;;;;;;;5.57;2.90;;;;;;;;;;5035648;28;20539;-69
2022/03/02 09:26:59;;;;;;;7.18;2.92;;;;;;;;;;5035732;28;20026;-68
2022/03/02 09:29:30;;;;;;;6.53;2.72;;;;;;;;;;5035593;28;20029;-69
2022/03/02 09:31:57;;;;;;;6.90;3.20;;;;;;;;;;5035458;28;20117;-68
2022/03/02 09:34:25;;;;;;;6.60;2.90;;;;;;;;;;5051040;28;20187;-68
2022/03/02 09:36:52;;;;;;;7.20;2.88;;;;;;;;;;5035659;28;20396;-69
2022/03/02 09:39:18;;;;;;;5.80;2.75;;;;;;;;;;5035513;28;20030;-71
2022/03/02 09:41:48;;;;;;;9.75;3.25;;;;;;;;;;5035433;28;20025;-72
2022/03/02 09:44:17;;;;;;;5.97;2.95;;;;;;;;;;5035361;28;20041;-69
2022/03/02 09:46:48;;;;;;;5.75;2.90;;;;;;;;;;5035558;28;20025;-69
2022/03/02 09:49:18;;;;;;;5.22;2.70;;;;;;;;;;5050915;28;20377;-67
2022/03/02 09:51:50;;;;;;;11.20;2.88;;;;;;;;;;5035414;28;20018;-69
2022/03/02 09:54:21;;;;;;;6.85;2.95;;;;;;;;;;5035396;28;20402;-68
2022/03/02 09:56:48;;;;;;;10.05;3.17;;;;;;;;;;5039812;28;20081;-68
2022/03/02 09:59:17;;;;;;;8.38;3.30;;;;;;;;;;5055024;28;20017;-68
2022/03/02 10:01:44;;;;;;;6.25;2.95;;;;;;;;;;5070484;28;20029;-66
2022/03/02 10:04:21;;;;;;;7.60;2.72;;;;;;;;;;5054986;28;20461;-67
2022/03/02 10:06:48;;;;;;;6.35;3.15;;;;;;;;;;5054970;28;20043;-67
2022/03/02 10:09:18;;;;;;;7.72;3.55;;;;;;;;;;5052621;28;20044;-67
2022/03/02 10:11:45;;;;;;;6.93;3.10;;;;;;;;;;5050463;28;20028;-67
2022/03/02 10:14:11;;;;;;;6.10;2.97;;;;;;;;;;5034952;28;20021;-67
2022/03/02 10:16:43;;;;;;;6.50;3.15;;;;;;;;;;5050433;28;20025;-67
2022/03/02 10:19:14;;;;;;;6.63;3.25;;;;;;;;;;5034909;28;20621;-67
2022/03/02 10:21:42;;;;;;;24.30;3.53;;;;;;;;;;5042342;28;20033;-67
2022/03/02 10:24:14;;;;;;;7.25;3.13;;;;;;;;;;5054552;28;20127;-66
2022/03/02 10:26:51;;;;;;;6.40;3.00;;;;;;;;;;5054251;28;20024;-67
2022/03/02 10:29:43;;;;;;;4.75;2.63;;;;;;;;;;5054712;28;20040;-67
2022/03/02 10:32:14;;;;;;;8.07;3.10;;;;;;;;;;5052474;28;20045;-67
2022/03/02 10:34:48;;;;;;;7.53;3.30;;;;;;;;;;5053431;28;20427;-67
2022/03/02 10:37:20;;;;;;;6.68;2.95;;;;;;;;;;5054511;28;20036;-68
2022/03/02 10:39:55;;;;;;;6.68;3.25;;;;;;;;;;5054398;28;20112;-67
2022/03/02 10:42:23;;;;;;;7.13;2.83;;;;;;;;;;5054353;28;20052;-67
2022/03/02 10:45:12;;;;;;;5.57;2.70;;;;;;;;;;5054249;28;20028;-67
2022/03/02 10:47:46;;;;;;;5.97;2.90;;;;;;;;;;5048810;28;20388;-67
2022/03/02 10:50:13;;;;;;;8.50;2.90;;;;;;;;;;5054260;28;20048;-67
2022/03/02 10:52:40;;;;;;;5.75;2.75;;;;;;;;;;5054268;28;20104;-67
2022/03/02 10:55:08;;;;;;;6.45;2.80;;;;;;;;;;5054046;28;20033;-67
2022/03/02 10:57:35;;;;;;;6.15;2.75;;;;;;;;;;5053992;28;20021;-67
2022/03/02 11:00:04;;;;;;;6.25;2.83;;;;;;;;;;5054010;28;20100;-66
2022/03/02 11:02:31;;;;;;;6.15;2.80;;;;;;;;;;5053839;28;20029;-67
2022/03/02 11:04:58;;;;;;;7.00;2.35;;;;;;;;;;5054011;28;20029;-66
2022/03/02 11:07:25;;;;;;;4.88;2.58;;;;;;;;;;5054005;28;20029;-66
2022/03/02 11:09:52;;;;;;;6.68;2.95;;;;;;;;;;5046392;28;20029;-66
2022/03/02 11:12:20;;;;;;;6.13;2.78;;;;;;;;;;5033843;28;20018;-66
2022/03/02 11:14:56;;;;;;;5.85;2.95;;;;;;;;;;5033551;28;20030;-66
2022/03/02 11:17:23;;;;;;;6.53;3.13;;;;;;;;;;5049140;28;20570;-66
2022/03/02 11:19:49;;;;;;;6.28;3.53;;;;;;;;;;5033716;28;20384;-67
2022/03/02 11:22:17;;;;;;;7.40;3.15;;;;;;;;;;5033646;28;20033;-66
2022/03/02 11:24:44;;;;;;;5.57;3.08;;;;;;;;;;5033516;28;20021;-66
2022/03/02 11:27:26;;;;;;;6.78;3.40;;;;;;;;;;5033422;28;20032;-67
2022/03/02 11:29:52;;;;;;;;;;;;;;;;;;5034233;28;20029;-66
2022/03/02 11:32:18;;;;;;;5.35;2.88;;;;;;;;;;5033393;28;19913;-66
2022/03/02 11:34:45;;;;;;;8.35;3.25;;;;;;;;;;5048635;28;20432;-66
2022/03/02 11:37:14;;;;;;;6.93;2.60;;;;;;;;;;5032719;28;20036;-66
2022/03/02 11:39:44;;;;;;;7.95;3.53;;;;;;;;;;5042414;28;20083;-66
2022/03/02 11:42:10;;;;;;;6.78;2.63;;;;;;;;;;5062887;28;20567;-66
2022/03/02 11:44:45;;;;;;;4.90;2.80;;;;;;;;;;5064651;28;20052;-66
2022/03/02 11:47:14;;;;;;;8.85;3.20;;;;;;;;;;5039706;28;20105;-66
2022/03/02 11:49:47;;;;;;;5.97;2.90;;;;;;;;;;5033502;28;20026;-66
2022/03/02 11:52:14;;;;;;;5.53;2.88;;;;;;;;;;5033443;28;20489;-70
2022/03/02 11:54:41;;;;;;;5.78;2.63;;;;;;;;;;5043496;28;20040;-67
2022/03/02 11:57:08;;;;;;;6.93;3.70;;;;;;;;;;5052964;28;20017;-67
2022/03/02 11:59:35;;;;;;;6.43;2.90;;;;;;;;;;5053139;28;20029;-67
2022/03/02 12:02:10;;;;;;;9.48;3.42;;;;;;;;;;5053134;28;20356;-65
2022/03/02 12:04:36;;;;;;;6.93;2.95;;;;;;;;;;5047253;28;20040;-65
2022/03/02 12:07:06;;;;;;;5.93;2.83;;;;;;;;;;5037307;28;20425;-65
2022/03/02 12:09:33;;;;;;;5.22;2.72;;;;;;;;;;5034923;28;20036;-66
2022/03/02 12:12:26;;;;;;;6.13;2.88;;;;;;;;;;5052968;28;20029;-66
2022/03/02 12:14:54;;;;;;;6.07;2.80;;;;;;;;;;5051365;28;20033;-66
2022/03/02 12:17:20;;;;;;;6.32;2.85;;;;;;;;;;5052600;28;20186;-66
2022/03/02 12:19:48;;;;;;;5.35;2.65;;;;;;;;;;5052697;28;20100;-66
2022/03/02 12:22:17;;;;;;;10.38;3.17;;;;;;;;;;5052743;28;20116;-68
2022/03/02 12:24:51;;;;;;;5.10;2.65;;;;;;;;;;5051215;28;20029;-67
2022/03/02 12:27:20;;;;;;;6.88;3.00;;;;;;;;;;5068042;28;20479;-66
2022/03/02 12:29:54;;;;;;;6.38;3.17;;;;;;;;;;5052512;28;20075;-67
2022/03/02 12:32:21;;;;;;;5.85;2.90;;;;;;;;;;5052420;28;20067;-66
2022/03/02 12:34:51;;;;;;;7.30;2.72;;;;;;;;;;5067932;28;20028;-67
2022/03/02 12:37:18;;;;;;;5.15;2.90;;;;;;;;;;5052446;28;20021;-66
2022/03/02 12:39:44;;;;;;;8.13;3.10;;;;;;;;;;5051962;28;20049;-66
2022/03/02 12:42:11;;;;;;;6.28;3.10;;;;;;;;;;5051794;28;20442;-67
2022/03/02 12:44:39;;;;;;;8.00;2.97;;;;;;;;;;5052517;28;20063;-67
2022/03/02 12:47:13;;;;;;;6.75;3.10;;;;;;;;;;5052302;28;20057;-67
2022/03/02 12:49:40;;;;;;;8.32;3.42;;;;;;;;;;5054787;28;20025;-68
2022/03/02 12:52:06;;;;;;;5.72;3.42;;;;;;;;;;5056356;28;20440;-67
2022/03/02 12:54:37;;;;;;;14.30;2.90;;;;;;;;;;5056260;28;20052;-67
2022/03/02 12:57:05;;;;;;;5.78;2.92;;;;;;;;;;5054862;28;20017;-66
2022/03/02 12:59:32;;;;;;;6.63;3.30;;;;;;;;;;5043337;28;20082;-66
2022/03/02 13:01:59;;;;;;;6.22;3.20;;;;;;;;;;5036237;28;20025;-66
2022/03/02 13:04:29;;;;;;;6.32;3.08;;;;;;;;;;5036204;28;20029;-67
2022/03/02 13:07:00;;;;;;;5.15;2.80;;;;;;;;;;5036233;28;20057;-67
2022/03/02 13:09:29;;;;;;;8.00;3.35;;;;;;;;;;5036052;28;20022;-66
2022/03/02 13:11:55;;;;;;;4.75;2.70;;;;;;;;;;5036077;28;20018;-66
2022/03/02 13:14:32;;;;;;;7.50;3.10;;;;;;;;;;5036136;28;20029;-66
2022/03/02 13:17:14;;;;;;;5.90;2.78;;;;;;;;;;5035934;28;20382;-66
2022/03/02 13:19:48;;;;;;;5.90;3.42;;;;;;;;;;5036167;28;20026;-67
2022/03/02 13:22:26;;;;;;;7.63;3.75;;;;;;;;;;5035940;28;20025;-67
2022/03/02 13:24:53;;;;;;;6.47;3.10;;;;;;;;;;5035727;28;20038;-66
2022/03/02 13:27:20;;;;;;;5.72;2.95;;;;;;;;;;5035668;28;20025;-67
2022/03/02 13:29:54;;;;;;;6.70;3.67;;;;;;;;;;5051216;28;20025;-67
2022/03/02 13:32:20;;;;;;;6.00;2.97;;;;;;;;;;5035677;28;20080;-67
2022/03/02 13:35:05;;;;;;;6.03;3.38;;;;;;;;;;5035837;28;20061;-67
2022/03/02 13:37:49;;;;;;;7.30;3.58;;;;;;;;;;5035852;28;20022;-67
2022/03/02 13:40:34;;;;;;;6.32;2.92;;;;;;;;;;5035889;28;20472;-68
2022/03/02 13:43:06;;;;;;;6.88;2.97;;;;;;;;;;5035214;28;20419;-67
2022/03/02 13:45:32;;;;;;;5.93;3.20;;;;;;;;;;5035612;28;20033;-67
2022/03/02 13:48:17;;;;;;;6.93;3.17;;;;;;;;;;5035463;28;20051;-66
2022/03/02 13:50:56;;;;;;;5.80;2.90;;;;;;;;;;5035650;28;20040;-66
2022/03/02 13:53:37;;;;;;;5.82;3.00;;;;;;;;;;5035279;28;20503;-66
2022/03/02 13:56:03;;;;;;;7.82;3.00;;;;;;;;;;5050746;28;20040;-66
2022/03/02 13:58:29;;;;;;;5.60;2.67;;;;;;;;;;5064724;28;20013;-66
2022/03/02 14:01:10;;;;;;;6.03;3.10;;;;;;;;;;5034630;28;20454;-67
2022/03/02 14:03:39;;;;;;;7.00;3.25;;;;;;;;;;5048117;28;20033;-67
2022/03/02 14:06:06;;;;;;;5.88;2.80;;;;;;;;;;5055305;28;20023;-67
2022/03/02 14:08:42;;;;;;;6.97;3.03;;;;;;;;;;5054368;28;20434;-66
2022/03/02 14:11:09;;;;;;;8.52;2.92;;;;;;;;;;5055093;28;20671;-66
2022/03/02 14:13:35;;;;;;;11.13;3.53;;;;;;;;;;5070605;28;20102;-67
2022/03/02 14:16:02;;;;;;;5.60;3.00;;;;;;;;;;5054775;28;20062;-66
2022/03/02 14:18:28;;;;;;;8.32;3.10;;;;;;;;;;5051186;28;20028;-66
2022/03/02 14:20:54;;;;;;;7.00;2.67;;;;;;;;;;5053770;28;20025;-67
2022/03/02 14:23:21;;;;;;;7.13;3.03;;;;;;;;;;5054195;28;20068;-67
2022/03/02 14:25:52;;;;;;;6.22;2.92;;;;;;;;;;5054847;28;20032;-67
2022/03/02 14:28:19;;;;;;;7.40;3.15;;;;;;;;;;5054947;28;20535;-66
2022/03/02 14:30:45;;;;;;;5.28;2.83;;;;;;;;;;5054829;28;20025;-67
2022/03/02 14:33:11;;;;;;;6.82;3.22;;;;;;;;;;5054385;28;20052;-67
2022/03/02 14:35:38;;;;;;;7.43;3.22;;;;;;;;;;5053533;28;20024;-66
2022/03/02 14:38:05;;;;;;;11.10;2.80;;;;;;;;;;5053778;28;20035;-67
2022/03/02 14:40:33;;;;;;;9.18;3.05;;;;;;;;;;5053103;28;20437;-69
2022/03/02 14:43:06;;;;;;;9.70;3.60;;;;;;;;;;5051483;28;20040;-66
2022/03/02 14:45:32;;;;;;;7.75;3.22;;;;;;;;;;5054414;28;20033;-66
2022/03/02 14:47:59;;;;;;;16.17;4.18;;;;;;;;;;5061366;28;20105;-66